sensor_id;sensor_type;location;lat;lon;timestamp;temperature;humidity
15364;DHT22;7781;49.690;6.472;2023-04-25T00:00:21;7.50;99.90
15364;DHT22;7781;49.690;6.472;2023-04-25T00:02:50;7.50;99.90
15364;DHT22;7781;49.690;6.472;2023-04-25T00:05:19;7.50;99.90
15364;DHT22;7781;49.690;6.472;2023-04-25T00:07:50;7.50;99.90
15364;DHT22;7781;49.690;6.472;2023-04-25T00:10:19;7.50;99.90
15364;DHT22;7781;49.690;6.472;2023-04-25T00:12:51;7.50;99.90
15364;DHT22;7781;49.690;6.472;2023-04-25T00:15:19;7.60;99.90
15364;DHT22;7781;49.690;6.472;2023-04-25T00:17:49;7.50;99.90
15364;DHT22;7781;49.690;6.472;2023-04-25T00:20:20;7.60;99.90
15364;DHT22;7781;49.690;6.472;2023-04-25T00:22:51;7.60;99.90
15364;DHT22;7781;49.690;6.472;2023-04-25T00:25:20;7.60;99.90
15364;DHT22;7781;49.690;6.472;2023-04-25T00:27:50;7.60;99.90
15364;DHT22;7781;49.690;6.472;2023-04-25T00:30:19;7.60;99.90
15364;DHT22;7781;49.690;6.472;2023-04-25T00:32:48;7.60;99.90
15364;DHT22;7781;49.690;6.472;2023-04-25T00:35:18;7.50;99.90
15364;DHT22;7781;49.690;6.472;2023-04-25T00:37:48;7.50;99.90
15364;DHT22;7781;49.690;6.472;2023-04-25T00:40:18;7.50;99.90
15364;DHT22;7781;49.690;6.472;2023-04-25T00:42:47;7.50;99.90
15364;DHT22;7781;49.690;6.472;2023-04-25T00:45:19;7.50;99.90
15364;DHT22;7781;49.690;6.472;2023-04-25T00:47:49;7.50;99.90
15364;DHT22;7781;49.690;6.472;2023-04-25T00:50:18;7.50;99.90
15364;DHT22;7781;49.690;6.472;2023-04-25T00:52:49;7.50;99.90
15364;DHT22;7781;49.690;6.472;2023-04-25T00:55:18;7.50;99.90
15364;DHT22;7781;49.690;6.472;2023-04-25T00:57:50;7.50;99.90
15364;DHT22;7781;49.690;6.472;2023-04-25T01:00:21;7.50;99.90
15364;DHT22;7781;49.690;6.472;2023-04-25T01:02:53;7.50;99.90
15364;DHT22;7781;49.690;6.472;2023-04-25T01:05:22;7.40;99.90
15364;DHT22;7781;49.690;6.472;2023-04-25T01:07:51;7.40;99.90
15364;DHT22;7781;49.690;6.472;2023-04-25T01:10:20;7.40;99.90
15364;DHT22;7781;49.690;6.472;2023-04-25T01:12:50;7.40;99.90
15364;DHT22;7781;49.690;6.472;2023-04-25T01:15:20;7.40;99.90
15364;DHT22;7781;49.690;6.472;2023-04-25T01:17:49;7.40;99.90
15364;DHT22;7781;49.690;6.472;2023-04-25T01:20:18;7.40;99.90
15364;DHT22;7781;49.690;6.472;2023-04-25T01:22:52;7.40;99.90
15364;DHT22;7781;49.690;6.472;2023-04-25T01:25:22;7.50;99.90
15364;DHT22;7781;49.690;6.472;2023-04-25T01:27:51;7.50;99.90
15364;DHT22;7781;49.690;6.472;2023-04-25T01:30:22;7.50;99.90
15364;DHT22;7781;49.690;6.472;2023-04-25T01:32:50;7.50;99.90
15364;DHT22;7781;49.690;6.472;2023-04-25T01:35:21;7.50;99.90
15364;DHT22;7781;49.690;6.472;2023-04-25T01:37:54;7.40;99.90
15364;DHT22;7781;49.690;6.472;2023-04-25T01:40:24;7.40;99.90
15364;DHT22;7781;49.690;6.472;2023-04-25T01:42:53;7.30;99.90
15364;DHT22;7781;49.690;6.472;2023-04-25T01:45:22;7.30;99.90
15364;DHT22;7781;49.690;6.472;2023-04-25T01:47:51;7.20;99.90
15364;DHT22;7781;49.690;6.472;2023-04-25T01:50:19;7.20;99.90
15364;DHT22;7781;49.690;6.472;2023-04-25T01:52:49;7.20;99.90
15364;DHT22;7781;49.690;6.472;2023-04-25T01:55:21;7.20;99.90
15364;DHT22;7781;49.690;6.472;2023-04-25T01:57:59;7.20;99.90
15364;DHT22;7781;49.690;6.472;2023-04-25T02:00:48;7.30;99.90
15364;DHT22;7781;49.690;6.472;2023-04-25T02:03:17;7.30;99.90
15364;DHT22;7781;49.690;6.472;2023-04-25T02:05:47;7.30;99.90
15364;DHT22;7781;49.690;6.472;2023-04-25T02:08:17;7.20;99.90
15364;DHT22;7781;49.690;6.472;2023-04-25T02:10:47;7.20;99.90
15364;DHT22;7781;49.690;6.472;2023-04-25T02:13:19;7.20;99.90
15364;DHT22;7781;49.690;6.472;2023-04-25T02:16:19;7.20;99.90
15364;DHT22;7781;49.690;6.472;2023-04-25T02:18:47;7.20;99.90
15364;DHT22;7781;49.690;6.472;2023-04-25T02:21:16;7.10;99.90
15364;DHT22;7781;49.690;6.472;2023-04-25T02:23:44;7.10;99.90
15364;DHT22;7781;49.690;6.472;2023-04-25T02:26:18;7.10;99.90
15364;DHT22;7781;49.690;6.472;2023-04-25T02:28:48;7.10;99.90
15364;DHT22;7781;49.690;6.472;2023-04-25T02:31:19;7.10;99.90
15364;DHT22;7781;49.690;6.472;2023-04-25T02:33:50;7.10;99.90
15364;DHT22;7781;49.690;6.472;2023-04-25T02:36:19;7.10;99.90
15364;DHT22;7781;49.690;6.472;2023-04-25T02:38:48;7.10;99.90
15364;DHT22;7781;49.690;6.472;2023-04-25T02:41:18;7.10;99.90
15364;DHT22;7781;49.690;6.472;2023-04-25T02:43:48;7.10;99.90
15364;DHT22;7781;49.690;6.472;2023-04-25T02:46:18;7.10;99.90
15364;DHT22;7781;49.690;6.472;2023-04-25T02:49:05;7.10;99.90
15364;DHT22;7781;49.690;6.472;2023-04-25T02:51:34;7.20;99.90
15364;DHT22;7781;49.690;6.472;2023-04-25T02:54:03;7.20;99.90
15364;DHT22;7781;49.690;6.472;2023-04-25T02:56:41;7.20;99.90
15364;DHT22;7781;49.690;6.472;2023-04-25T02:59:15;7.20;99.90
15364;DHT22;7781;49.690;6.472;2023-04-25T03:01:45;7.30;99.90
15364;DHT22;7781;49.690;6.472;2023-04-25T03:04:15;7.30;99.90
15364;DHT22;7781;49.690;6.472;2023-04-25T03:06:47;7.30;99.90
15364;DHT22;7781;49.690;6.472;2023-04-25T03:09:16;7.30;99.90
15364;DHT22;7781;49.690;6.472;2023-04-25T03:11:46;7.30;99.90
15364;DHT22;7781;49.690;6.472;2023-04-25T03:14:15;7.30;99.90
15364;DHT22;7781;49.690;6.472;2023-04-25T03:16:44;7.30;99.90
15364;DHT22;7781;49.690;6.472;2023-04-25T03:19:12;7.40;99.90
15364;DHT22;7781;49.690;6.472;2023-04-25T03:21:43;7.40;99.90
15364;DHT22;7781;49.690;6.472;2023-04-25T03:24:13;7.40;99.90
15364;DHT22;7781;49.690;6.472;2023-04-25T03:26:46;7.40;99.90
15364;DHT22;7781;49.690;6.472;2023-04-25T03:29:15;7.30;99.90
15364;DHT22;7781;49.690;6.472;2023-04-25T03:31:46;7.30;99.90
15364;DHT22;7781;49.690;6.472;2023-04-25T03:34:15;7.30;99.90
15364;DHT22;7781;49.690;6.472;2023-04-25T03:36:45;7.20;99.90
15364;DHT22;7781;49.690;6.472;2023-04-25T03:39:14;7.20;99.90
15364;DHT22;7781;49.690;6.472;2023-04-25T03:41:48;7.10;99.90
15364;DHT22;7781;49.690;6.472;2023-04-25T03:44:18;7.10;99.90
15364;DHT22;7781;49.690;6.472;2023-04-25T03:46:47;7.10;99.90
15364;DHT22;7781;49.690;6.472;2023-04-25T03:49:18;7.00;99.90
15364;DHT22;7781;49.690;6.472;2023-04-25T03:52:07;7.00;99.90
15364;DHT22;7781;49.690;6.472;2023-04-25T03:54:38;6.90;99.90
15364;DHT22;7781;49.690;6.472;2023-04-25T03:57:12;6.90;99.90
15364;DHT22;7781;49.690;6.472;2023-04-25T03:59:43;6.90;99.90
15364;DHT22;7781;49.690;6.472;2023-04-25T04:02:15;6.90;99.90
15364;DHT22;7781;49.690;6.472;2023-04-25T04:04:44;6.90;99.90
15364;DHT22;7781;49.690;6.472;2023-04-25T04:07:15;6.90;99.90
15364;DHT22;7781;49.690;6.472;2023-04-25T04:09:46;6.80;99.90
15364;DHT22;7781;49.690;6.472;2023-04-25T04:12:25;6.80;99.90
15364;DHT22;7781;49.690;6.472;2023-04-25T04:14:55;6.80;99.90
15364;DHT22;7781;49.690;6.472;2023-04-25T04:17:25;6.80;99.90
15364;DHT22;7781;49.690;6.472;2023-04-25T04:19:54;6.80;99.90
15364;DHT22;7781;49.690;6.472;2023-04-25T04:22:23;6.80;99.90
15364;DHT22;7781;49.690;6.472;2023-04-25T04:24:56;6.80;99.90
15364;DHT22;7781;49.690;6.472;2023-04-25T04:27:46;6.80;99.90
15364;DHT22;7781;49.690;6.472;2023-04-25T04:30:24;6.70;99.90
15364;DHT22;7781;49.690;6.472;2023-04-25T04:32:58;6.70;99.90
15364;DHT22;7781;49.690;6.472;2023-04-25T04:35:28;6.70;99.90
15364;DHT22;7781;49.690;6.472;2023-04-25T04:37:57;6.70;99.90
15364;DHT22;7781;49.690;6.472;2023-04-25T04:40:30;6.70;99.90
15364;DHT22;7781;49.690;6.472;2023-04-25T04:43:10;6.70;99.90
15364;DHT22;7781;49.690;6.472;2023-04-25T04:46:15;6.80;99.90
15364;DHT22;7781;49.690;6.472;2023-04-25T04:49:18;6.80;99.90
15364;DHT22;7781;49.690;6.472;2023-04-25T04:51:56;6.80;99.90
15364;DHT22;7781;49.690;6.472;2023-04-25T04:54:50;6.80;99.90
15364;DHT22;7781;49.690;6.472;2023-04-25T04:57:38;6.80;99.90
15364;DHT22;7781;49.690;6.472;2023-04-25T05:00:21;6.80;99.90
15364;DHT22;7781;49.690;6.472;2023-04-25T05:02:59;6.80;99.90
15364;DHT22;7781;49.690;6.472;2023-04-25T05:05:52;6.90;99.90
15364;DHT22;7781;49.690;6.472;2023-04-25T05:08:25;6.90;99.90
15364;DHT22;7781;49.690;6.472;2023-04-25T05:11:06;6.90;99.90
15364;DHT22;7781;49.690;6.472;2023-04-25T05:13:54;6.90;99.90
15364;DHT22;7781;49.690;6.472;2023-04-25T05:16:47;7.00;99.90
15364;DHT22;7781;49.690;6.472;2023-04-25T05:19:43;7.00;99.90
15364;DHT22;7781;49.690;6.472;2023-04-25T05:22:31;7.10;99.90
15364;DHT22;7781;49.690;6.472;2023-04-25T05:25:10;7.10;99.90
15364;DHT22;7781;49.690;6.472;2023-04-25T05:27:54;7.10;99.90
15364;DHT22;7781;49.690;6.472;2023-04-25T05:30:42;7.20;99.90
15364;DHT22;7781;49.690;6.472;2023-04-25T05:33:23;7.20;99.90
15364;DHT22;7781;49.690;6.472;2023-04-25T05:35:53;7.20;99.90
15364;DHT22;7781;49.690;6.472;2023-04-25T05:38:23;7.30;99.90
15364;DHT22;7781;49.690;6.472;2023-04-25T05:41:10;7.30;99.90
15364;DHT22;7781;49.690;6.472;2023-04-25T05:43:47;7.20;99.90
15364;DHT22;7781;49.690;6.472;2023-04-25T05:46:31;7.20;99.90
15364;DHT22;7781;49.690;6.472;2023-04-25T05:49:40;7.20;99.90
15364;DHT22;7781;49.690;6.472;2023-04-25T05:52:22;7.20;99.90
15364;DHT22;7781;49.690;6.472;2023-04-25T05:55:11;7.30;99.90
15364;DHT22;7781;49.690;6.472;2023-04-25T05:57:47;7.30;99.90
15364;DHT22;7781;49.690;6.472;2023-04-25T06:00:18;7.40;99.90
15364;DHT22;7781;49.690;6.472;2023-04-25T06:02:49;7.50;99.90
15364;DHT22;7781;49.690;6.472;2023-04-25T06:05:20;7.50;99.90
15364;DHT22;7781;49.690;6.472;2023-04-25T06:07:50;7.50;99.90
15364;DHT22;7781;49.690;6.472;2023-04-25T06:10:20;7.60;99.90
15364;DHT22;7781;49.690;6.472;2023-04-25T06:12:49;7.60;99.90
15364;DHT22;7781;49.690;6.472;2023-04-25T06:15:21;7.70;99.90
15364;DHT22;7781;49.690;6.472;2023-04-25T06:17:55;7.70;99.90
15364;DHT22;7781;49.690;6.472;2023-04-25T06:20:28;7.70;99.90
15364;DHT22;7781;49.690;6.472;2023-04-25T06:22:59;7.80;99.90
15364;DHT22;7781;49.690;6.472;2023-04-25T06:25:47;7.80;99.90
15364;DHT22;7781;49.690;6.472;2023-04-25T06:28:16;7.80;99.90
15364;DHT22;7781;49.690;6.472;2023-04-25T06:30:45;7.80;99.90
15364;DHT22;7781;49.690;6.472;2023-04-25T06:33:18;7.80;99.90
15364;DHT22;7781;49.690;6.472;2023-04-25T06:35:50;7.80;99.90
15364;DHT22;7781;49.690;6.472;2023-04-25T06:38:23;7.80;99.90
15364;DHT22;7781;49.690;6.472;2023-04-25T06:40:52;7.80;99.90
15364;DHT22;7781;49.690;6.472;2023-04-25T06:43:22;7.80;99.90
15364;DHT22;7781;49.690;6.472;2023-04-25T06:46:02;7.70;99.90
15364;DHT22;7781;49.690;6.472;2023-04-25T06:48:35;7.70;99.90
15364;DHT22;7781;49.690;6.472;2023-04-25T06:51:06;7.70;99.90
15364;DHT22;7781;49.690;6.472;2023-04-25T06:53:36;7.80;99.90
15364;DHT22;7781;49.690;6.472;2023-04-25T06:56:07;7.80;99.90
15364;DHT22;7781;49.690;6.472;2023-04-25T06:58:48;7.90;99.90
15364;DHT22;7781;49.690;6.472;2023-04-25T07:01:44;8.00;99.90
15364;DHT22;7781;49.690;6.472;2023-04-25T07:04:24;8.10;99.90
15364;DHT22;7781;49.690;6.472;2023-04-25T07:06:58;8.10;99.90
15364;DHT22;7781;49.690;6.472;2023-04-25T07:09:36;8.10;99.90
15364;DHT22;7781;49.690;6.472;2023-04-25T07:12:05;8.20;99.90
15364;DHT22;7781;49.690;6.472;2023-04-25T07:14:35;8.10;99.90
15364;DHT22;7781;49.690;6.472;2023-04-25T07:17:03;8.20;99.90
15364;DHT22;7781;49.690;6.472;2023-04-25T07:19:34;8.10;99.90
15364;DHT22;7781;49.690;6.472;2023-04-25T07:22:07;8.20;99.90
15364;DHT22;7781;49.690;6.472;2023-04-25T07:24:41;8.20;99.90
15364;DHT22;7781;49.690;6.472;2023-04-25T07:27:16;8.10;99.90
15364;DHT22;7781;49.690;6.472;2023-04-25T07:29:59;8.10;99.90
15364;DHT22;7781;49.690;6.472;2023-04-25T07:32:29;8.10;99.90
15364;DHT22;7781;49.690;6.472;2023-04-25T07:34:59;8.10;99.90
15364;DHT22;7781;49.690;6.472;2023-04-25T07:37:30;8.10;99.90
15364;DHT22;7781;49.690;6.472;2023-04-25T07:40:28;8.10;99.90
15364;DHT22;7781;49.690;6.472;2023-04-25T07:43:04;8.10;99.90
15364;DHT22;7781;49.690;6.472;2023-04-25T07:45:46;8.10;99.90
15364;DHT22;7781;49.690;6.472;2023-04-25T07:48:18;8.10;99.90
15364;DHT22;7781;49.690;6.472;2023-04-25T07:50:48;8.10;99.90
15364;DHT22;7781;49.690;6.472;2023-04-25T07:53:21;8.10;99.90
15364;DHT22;7781;49.690;6.472;2023-04-25T07:56:09;8.10;99.90
15364;DHT22;7781;49.690;6.472;2023-04-25T07:58:40;8.10;99.90
15364;DHT22;7781;49.690;6.472;2023-04-25T08:01:13;8.20;99.90
15364;DHT22;7781;49.690;6.472;2023-04-25T08:03:53;8.10;99.90
15364;DHT22;7781;49.690;6.472;2023-04-25T08:06:29;8.20;99.90
15364;DHT22;7781;49.690;6.472;2023-04-25T08:09:10;8.10;99.90
15364;DHT22;7781;49.690;6.472;2023-04-25T08:11:41;8.20;99.90
15364;DHT22;7781;49.690;6.472;2023-04-25T08:14:14;8.20;99.90
15364;DHT22;7781;49.690;6.472;2023-04-25T08:16:44;8.20;99.90
15364;DHT22;7781;49.690;6.472;2023-04-25T08:19:12;8.20;99.90
15364;DHT22;7781;49.690;6.472;2023-04-25T08:21:42;8.30;99.90
15364;DHT22;7781;49.690;6.472;2023-04-25T08:24:18;8.40;99.90
15364;DHT22;7781;49.690;6.472;2023-04-25T08:26:47;8.50;99.90
15364;DHT22;7781;49.690;6.472;2023-04-25T08:29:19;8.60;99.90
15364;DHT22;7781;49.690;6.472;2023-04-25T08:31:50;8.60;99.90
15364;DHT22;7781;49.690;6.472;2023-04-25T08:34:21;8.70;99.90
15364;DHT22;7781;49.690;6.472;2023-04-25T08:36:51;8.70;99.90
15364;DHT22;7781;49.690;6.472;2023-04-25T08:39:40;8.60;99.90
15364;DHT22;7781;49.690;6.472;2023-04-25T08:42:31;8.60;99.90
15364;DHT22;7781;49.690;6.472;2023-04-25T08:45:03;8.60;99.90
15364;DHT22;7781;49.690;6.472;2023-04-25T08:47:38;8.60;99.90
15364;DHT22;7781;49.690;6.472;2023-04-25T08:50:10;8.60;99.90
15364;DHT22;7781;49.690;6.472;2023-04-25T08:52:44;8.60;99.90
15364;DHT22;7781;49.690;6.472;2023-04-25T08:55:15;8.70;99.90
15364;DHT22;7781;49.690;6.472;2023-04-25T08:57:44;8.90;99.90
15364;DHT22;7781;49.690;6.472;2023-04-25T09:00:14;9.10;99.90
15364;DHT22;7781;49.690;6.472;2023-04-25T09:02:43;9.10;99.90
15364;DHT22;7781;49.690;6.472;2023-04-25T09:05:14;9.20;99.90
15364;DHT22;7781;49.690;6.472;2023-04-25T09:07:44;9.60;99.90
15364;DHT22;7781;49.690;6.472;2023-04-25T09:10:17;9.80;99.90
15364;DHT22;7781;49.690;6.472;2023-04-25T09:13:02;9.90;99.90
15364;DHT22;7781;49.690;6.472;2023-04-25T09:15:47;9.90;99.90
15364;DHT22;7781;49.690;6.472;2023-04-25T09:18:31;9.80;99.90
15364;DHT22;7781;49.690;6.472;2023-04-25T09:21:06;9.80;99.90
15364;DHT22;7781;49.690;6.472;2023-04-25T09:23:44;9.60;99.90
15364;DHT22;7781;49.690;6.472;2023-04-25T09:26:16;9.60;99.90
15364;DHT22;7781;49.690;6.472;2023-04-25T09:28:46;9.50;99.90
15364;DHT22;7781;49.690;6.472;2023-04-25T09:31:23;9.40;99.90
15364;DHT22;7781;49.690;6.472;2023-04-25T09:33:59;9.30;99.90
15364;DHT22;7781;49.690;6.472;2023-04-25T09:36:36;9.30;99.90
15364;DHT22;7781;49.690;6.472;2023-04-25T09:39:28;9.20;99.90
15364;DHT22;7781;49.690;6.472;2023-04-25T09:42:07;9.20;99.90
15364;DHT22;7781;49.690;6.472;2023-04-25T09:44:42;9.20;99.90
15364;DHT22;7781;49.690;6.472;2023-04-25T09:47:14;9.20;99.90
15364;DHT22;7781;49.690;6.472;2023-04-25T09:49:45;9.20;99.90
15364;DHT22;7781;49.690;6.472;2023-04-25T09:52:16;9.20;99.90
15364;DHT22;7781;49.690;6.472;2023-04-25T09:55:05;9.20;99.90
15364;DHT22;7781;49.690;6.472;2023-04-25T09:57:36;9.20;99.90
15364;DHT22;7781;49.690;6.472;2023-04-25T10:00:08;9.20;99.90
15364;DHT22;7781;49.690;6.472;2023-04-25T10:02:46;9.20;99.90
15364;DHT22;7781;49.690;6.472;2023-04-25T10:05:37;9.20;99.90
15364;DHT22;7781;49.690;6.472;2023-04-25T10:08:06;9.30;99.90
15364;DHT22;7781;49.690;6.472;2023-04-25T10:10:36;9.20;99.90
15364;DHT22;7781;49.690;6.472;2023-04-25T10:13:07;9.30;99.90
15364;DHT22;7781;49.690;6.472;2023-04-25T10:15:35;9.30;99.90
15364;DHT22;7781;49.690;6.472;2023-04-25T10:18:06;9.20;99.90
15364;DHT22;7781;49.690;6.472;2023-04-25T10:20:35;9.30;99.90
15364;DHT22;7781;49.690;6.472;2023-04-25T10:23:10;9.30;99.90
15364;DHT22;7781;49.690;6.472;2023-04-25T10:25:41;9.30;99.90
15364;DHT22;7781;49.690;6.472;2023-04-25T10:28:12;9.30;99.90
15364;DHT22;7781;49.690;6.472;2023-04-25T10:30:57;9.50;99.90
15364;DHT22;7781;49.690;6.472;2023-04-25T10:33:32;9.60;99.90
15364;DHT22;7781;49.690;6.472;2023-04-25T10:36:11;9.70;99.90
15364;DHT22;7781;49.690;6.472;2023-04-25T10:38:39;9.80;99.90
15364;DHT22;7781;49.690;6.472;2023-04-25T10:41:10;9.90;99.90
15364;DHT22;7781;49.690;6.472;2023-04-25T10:43:41;10.00;99.90
15364;DHT22;7781;49.690;6.472;2023-04-25T10:46:19;10.00;99.90
15364;DHT22;7781;49.690;6.472;2023-04-25T10:48:50;10.00;99.90
15364;DHT22;7781;49.690;6.472;2023-04-25T10:51:22;10.00;99.90
15364;DHT22;7781;49.690;6.472;2023-04-25T10:53:58;10.10;99.90
15364;DHT22;7781;49.690;6.472;2023-04-25T10:56:29;10.40;99.90
15364;DHT22;7781;49.690;6.472;2023-04-25T10:59:05;10.60;99.90
15364;DHT22;7781;49.690;6.472;2023-04-25T11:01:40;11.00;99.90
15364;DHT22;7781;49.690;6.472;2023-04-25T11:04:22;11.40;99.90
15364;DHT22;7781;49.690;6.472;2023-04-25T11:07:04;11.70;99.90
15364;DHT22;7781;49.690;6.472;2023-04-25T11:09:39;11.90;99.90
15364;DHT22;7781;49.690;6.472;2023-04-25T11:12:09;12.00;99.90
15364;DHT22;7781;49.690;6.472;2023-04-25T11:14:41;12.00;99.90
15364;DHT22;7781;49.690;6.472;2023-04-25T11:17:09;12.10;99.90
15364;DHT22;7781;49.690;6.472;2023-04-25T11:19:41;12.10;99.90
15364;DHT22;7781;49.690;6.472;2023-04-25T11:22:10;12.10;99.90
15364;DHT22;7781;49.690;6.472;2023-04-25T11:24:42;12.00;99.90
15364;DHT22;7781;49.690;6.472;2023-04-25T11:27:12;11.90;99.90
15364;DHT22;7781;49.690;6.472;2023-04-25T11:29:42;11.70;99.90
15364;DHT22;7781;49.690;6.472;2023-04-25T11:32:11;11.60;99.90
15364;DHT22;7781;49.690;6.472;2023-04-25T11:34:43;11.60;99.90
15364;DHT22;7781;49.690;6.472;2023-04-25T11:37:12;11.60;99.90
15364;DHT22;7781;49.690;6.472;2023-04-25T11:39:44;11.60;99.90
15364;DHT22;7781;49.690;6.472;2023-04-25T11:42:16;11.60;99.90
15364;DHT22;7781;49.690;6.472;2023-04-25T11:44:47;11.60;99.90
15364;DHT22;7781;49.690;6.472;2023-04-25T11:47:16;11.60;99.90
15364;DHT22;7781;49.690;6.472;2023-04-25T11:49:44;11.60;99.90
15364;DHT22;7781;49.690;6.472;2023-04-25T11:52:15;11.50;99.90
15364;DHT22;7781;49.690;6.472;2023-04-25T11:54:44;11.40;99.90
15364;DHT22;7781;49.690;6.472;2023-04-25T11:57:13;11.30;99.90
15364;DHT22;7781;49.690;6.472;2023-04-25T11:59:42;11.40;99.90
15364;DHT22;7781;49.690;6.472;2023-04-25T12:02:25;11.20;99.90
15364;DHT22;7781;49.690;6.472;2023-04-25T12:04:59;11.00;99.90
15364;DHT22;7781;49.690;6.472;2023-04-25T12:07:48;10.90;99.90
15364;DHT22;7781;49.690;6.472;2023-04-25T12:10:18;10.80;99.90
15364;DHT22;7781;49.690;6.472;2023-04-25T12:12:48;10.70;99.90
15364;DHT22;7781;49.690;6.472;2023-04-25T12:15:19;10.80;99.90
15364;DHT22;7781;49.690;6.472;2023-04-25T12:17:54;10.80;99.90
15364;DHT22;7781;49.690;6.472;2023-04-25T12:20:24;10.80;99.90
15364;DHT22;7781;49.690;6.472;2023-04-25T12:22:54;10.90;99.90
15364;DHT22;7781;49.690;6.472;2023-04-25T12:25:35;10.90;99.90
15364;DHT22;7781;49.690;6.472;2023-04-25T12:28:13;10.90;99.90
15364;DHT22;7781;49.690;6.472;2023-04-25T12:30:56;10.90;99.90
15364;DHT22;7781;49.690;6.472;2023-04-25T12:33:28;11.00;99.90
15364;DHT22;7781;49.690;6.472;2023-04-25T12:35:58;11.20;99.90
15364;DHT22;7781;49.690;6.472;2023-04-25T12:38:35;11.30;99.90
15364;DHT22;7781;49.690;6.472;2023-04-25T12:41:05;11.30;99.90
15364;DHT22;7781;49.690;6.472;2023-04-25T12:43:36;11.30;99.90
15364;DHT22;7781;49.690;6.472;2023-04-25T12:46:06;11.20;99.90
15364;DHT22;7781;49.690;6.472;2023-04-25T12:48:36;11.10;99.90
15364;DHT22;7781;49.690;6.472;2023-04-25T12:51:05;11.10;99.90
15364;DHT22;7781;49.690;6.472;2023-04-25T12:53:34;11.30;99.90
15364;DHT22;7781;49.690;6.472;2023-04-25T12:56:05;11.50;99.90
15364;DHT22;7781;49.690;6.472;2023-04-25T12:58:34;11.70;99.90
15364;DHT22;7781;49.690;6.472;2023-04-25T13:01:04;11.90;99.90
15364;DHT22;7781;49.690;6.472;2023-04-25T13:03:35;12.10;99.90
15364;DHT22;7781;49.690;6.472;2023-04-25T13:06:05;12.20;99.90
15364;DHT22;7781;49.690;6.472;2023-04-25T13:08:34;12.40;99.90
15364;DHT22;7781;49.690;6.472;2023-04-25T13:11:05;12.40;99.90
15364;DHT22;7781;49.690;6.472;2023-04-25T13:13:36;12.40;99.90
15364;DHT22;7781;49.690;6.472;2023-04-25T13:16:06;12.30;99.90
15364;DHT22;7781;49.690;6.472;2023-04-25T13:18:37;12.30;99.90
15364;DHT22;7781;49.690;6.472;2023-04-25T13:21:05;12.40;99.90
15364;DHT22;7781;49.690;6.472;2023-04-25T13:23:35;12.30;99.90
15364;DHT22;7781;49.690;6.472;2023-04-25T13:26:19;12.20;99.90
15364;DHT22;7781;49.690;6.472;2023-04-25T13:28:48;12.10;99.90
15364;DHT22;7781;49.690;6.472;2023-04-25T13:31:17;12.00;99.90
15364;DHT22;7781;49.690;6.472;2023-04-25T13:33:48;11.80;99.90
15364;DHT22;7781;49.690;6.472;2023-04-25T13:36:17;11.70;99.90
15364;DHT22;7781;49.690;6.472;2023-04-25T13:38:46;11.60;99.90
15364;DHT22;7781;49.690;6.472;2023-04-25T13:41:16;11.40;99.90
15364;DHT22;7781;49.690;6.472;2023-04-25T13:43:46;11.40;99.90
15364;DHT22;7781;49.690;6.472;2023-04-25T13:46:16;11.40;99.90
15364;DHT22;7781;49.690;6.472;2023-04-25T13:49:07;11.50;99.90
15364;DHT22;7781;49.690;6.472;2023-04-25T13:51:39;11.60;99.90
15364;DHT22;7781;49.690;6.472;2023-04-25T13:54:10;11.70;99.90
15364;DHT22;7781;49.690;6.472;2023-04-25T13:56:39;11.60;99.90
15364;DHT22;7781;49.690;6.472;2023-04-25T13:59:09;11.60;99.90
15364;DHT22;7781;49.690;6.472;2023-04-25T14:01:39;11.80;99.90
15364;DHT22;7781;49.690;6.472;2023-04-25T14:04:09;11.90;99.90
15364;DHT22;7781;49.690;6.472;2023-04-25T14:06:37;12.10;99.90
15364;DHT22;7781;49.690;6.472;2023-04-25T14:09:06;12.70;99.90
15364;DHT22;7781;49.690;6.472;2023-04-25T14:11:40;12.90;99.90
15364;DHT22;7781;49.690;6.472;2023-04-25T14:14:10;13.00;99.90
15364;DHT22;7781;49.690;6.472;2023-04-25T14:16:39;12.90;99.90
15364;DHT22;7781;49.690;6.472;2023-04-25T14:19:09;13.30;99.90
15364;DHT22;7781;49.690;6.472;2023-04-25T14:21:39;13.30;99.90
15364;DHT22;7781;49.690;6.472;2023-04-25T14:24:09;13.10;99.90
15364;DHT22;7781;49.690;6.472;2023-04-25T14:26:39;12.70;99.90
15364;DHT22;7781;49.690;6.472;2023-04-25T14:29:09;12.50;99.90
15364;DHT22;7781;49.690;6.472;2023-04-25T14:31:39;12.40;99.90
15364;DHT22;7781;49.690;6.472;2023-04-25T14:34:18;12.50;99.90
15364;DHT22;7781;49.690;6.472;2023-04-25T14:36:47;12.40;99.90
15364;DHT22;7781;49.690;6.472;2023-04-25T14:39:16;12.10;99.90
15364;DHT22;7781;49.690;6.472;2023-04-25T14:41:45;12.00;99.90
15364;DHT22;7781;49.690;6.472;2023-04-25T14:44:16;12.00;99.90
15364;DHT22;7781;49.690;6.472;2023-04-25T14:46:45;12.10;99.90
15364;DHT22;7781;49.690;6.472;2023-04-25T14:49:14;12.10;99.90
15364;DHT22;7781;49.690;6.472;2023-04-25T14:51:45;12.10;99.90
15364;DHT22;7781;49.690;6.472;2023-04-25T14:54:18;12.20;99.90
15364;DHT22;7781;49.690;6.472;2023-04-25T14:56:47;12.30;99.90
15364;DHT22;7781;49.690;6.472;2023-04-25T14:59:18;12.20;99.90
15364;DHT22;7781;49.690;6.472;2023-04-25T15:01:48;12.20;99.90
15364;DHT22;7781;49.690;6.472;2023-04-25T15:04:18;12.30;99.90
15364;DHT22;7781;49.690;6.472;2023-04-25T15:06:50;12.90;99.90
15364;DHT22;7781;49.690;6.472;2023-04-25T15:09:20;13.70;99.90
15364;DHT22;7781;49.690;6.472;2023-04-25T15:11:50;14.10;99.90
15364;DHT22;7781;49.690;6.472;2023-04-25T15:14:19;14.30;99.90
15364;DHT22;7781;49.690;6.472;2023-04-25T15:16:49;14.20;99.90
15364;DHT22;7781;49.690;6.472;2023-04-25T15:19:18;13.90;99.90
15364;DHT22;7781;49.690;6.472;2023-04-25T15:21:47;13.60;99.90
15364;DHT22;7781;49.690;6.472;2023-04-25T15:24:18;13.30;99.90
15364;DHT22;7781;49.690;6.472;2023-04-25T15:26:49;13.10;99.90
15364;DHT22;7781;49.690;6.472;2023-04-25T15:29:18;13.00;99.90
15364;DHT22;7781;49.690;6.472;2023-04-25T15:31:50;12.90;99.90
15364;DHT22;7781;49.690;6.472;2023-04-25T15:34:20;12.60;99.90
15364;DHT22;7781;49.690;6.472;2023-04-25T15:36:51;12.40;99.90
15364;DHT22;7781;49.690;6.472;2023-04-25T15:39:23;12.20;99.90
15364;DHT22;7781;49.690;6.472;2023-04-25T15:41:55;12.10;99.90
15364;DHT22;7781;49.690;6.472;2023-04-25T15:44:25;11.90;99.90
15364;DHT22;7781;49.690;6.472;2023-04-25T15:46:54;11.80;99.90
15364;DHT22;7781;49.690;6.472;2023-04-25T15:49:23;11.70;99.90
15364;DHT22;7781;49.690;6.472;2023-04-25T15:51:53;11.70;99.90
15364;DHT22;7781;49.690;6.472;2023-04-25T15:54:23;11.60;99.90
15364;DHT22;7781;49.690;6.472;2023-04-25T15:56:52;11.50;99.90
15364;DHT22;7781;49.690;6.472;2023-04-25T15:59:21;11.50;99.90
15364;DHT22;7781;49.690;6.472;2023-04-25T16:01:50;11.40;99.90
15364;DHT22;7781;49.690;6.472;2023-04-25T16:04:19;11.40;99.90
15364;DHT22;7781;49.690;6.472;2023-04-25T16:06:48;11.40;99.90
15364;DHT22;7781;49.690;6.472;2023-04-25T16:09:17;11.30;99.90
15364;DHT22;7781;49.690;6.472;2023-04-25T16:11:47;11.30;99.90
15364;DHT22;7781;49.690;6.472;2023-04-25T16:14:17;11.30;99.90
15364;DHT22;7781;49.690;6.472;2023-04-25T16:16:45;11.20;99.90
15364;DHT22;7781;49.690;6.472;2023-04-25T16:19:16;11.10;99.90
15364;DHT22;7781;49.690;6.472;2023-04-25T16:21:45;11.00;99.90
15364;DHT22;7781;49.690;6.472;2023-04-25T16:24:14;11.00;99.90
15364;DHT22;7781;49.690;6.472;2023-04-25T16:26:43;11.00;99.90
15364;DHT22;7781;49.690;6.472;2023-04-25T16:29:14;11.00;99.90
15364;DHT22;7781;49.690;6.472;2023-04-25T16:31:45;11.00;99.90
15364;DHT22;7781;49.690;6.472;2023-04-25T16:34:14;11.10;99.90